Time;durP1;ratioP1;P1;durP2;ratioP2;P2;SDS_P1;SDS_P2;PMS_P1;PMS_P2;Temp;Humidity;BMP_temperature;BMP_pressure;BME280_temperature;BME280_humidity;BME280_pressure;Samples;Min_cycle;Max_cycle;Signal;HPM_P1;HPM_P2
2022/09/26 00:02:02;;;;;;;11.67;3.73;;;;;;;7.07;100.00;100283.91;7387625;19;20432;-49
2022/09/26 00:04:31;;;;;;;10.30;3.70;;;;;;;7.11;100.00;100278.13;7393535;19;20841;-55
2022/09/26 00:07:01;;;;;;;9.43;2.80;;;;;;;7.13;100.00;100263.66;7385477;19;20436;-54
2022/09/26 00:09:30;;;;;;;4.03;3.10;;;;;;;7.12;100.00;100264.47;7391299;19;20420;-58
2022/09/26 00:12:00;;;;;;;8.83;3.40;;;;;;;7.14;100.00;100252.59;7386735;19;20968;-52
2022/09/26 00:14:32;;;;;;;7.67;3.00;;;;;;;7.15;100.00;100248.34;7393830;19;20391;-56
2022/09/26 00:17:02;;;;;;;6.60;2.90;;;;;;;7.18;100.00;100245.06;7386716;19;20410;-58
2022/09/26 00:19:31;;;;;;;12.17;3.17;;;;;;;7.18;100.00;100237.34;7390920;19;20519;-53
2022/09/26 00:22:01;;;;;;;8.03;2.87;;;;;;;7.18;100.00;100235.66;7387247;19;20411;-54
2022/09/26 00:24:30;;;;;;;4.47;3.10;;;;;;;7.16;100.00;100230.47;7392848;19;20387;-56
2022/09/26 00:26:59;;;;;;;6.60;3.10;;;;;;;7.16;100.00;100220.22;7386080;19;20435;-56
2022/09/26 00:29:29;;;;;;;9.63;3.10;;;;;;;7.19;100.00;100223.72;7390675;19;20418;-52
2022/09/26 00:32:01;;;;;;;15.77;3.73;;;;;;;7.16;100.00;100214.19;7384861;19;20439;-53
2022/09/26 00:34:30;;;;;;;7.83;3.00;;;;;;;7.18;100.00;100206.56;7396310;19;20953;-54
2022/09/26 00:37:00;;;;;;;8.97;3.47;;;;;;;7.18;100.00;100204.88;7388739;19;21003;-57
2022/09/26 00:39:30;;;;;;;7.83;3.00;;;;;;;7.16;100.00;100199.69;7390174;19;20411;-51
2022/09/26 00:41:59;;;;;;;4.93;2.40;;;;;;;7.20;100.00;100194.69;7386493;19;20441;-54
2022/09/26 00:44:47;;;;;;;5.97;2.63;;;;;;;7.24;100.00;100194.03;7393898;19;20391;-54
2022/09/26 00:47:34;;;;;;;6.07;2.93;;;;;;;7.20;100.00;100185.31;7383971;19;20986;-55
2022/09/26 00:50:07;;;;;;;11.77;2.87;;;;;;;7.22;100.00;100180.25;7387075;19;20793;-58
2022/09/26 00:52:39;;;;;;;6.77;2.43;;;;;;;7.23;100.00;100176.88;7391694;19;20392;-52
2022/09/26 00:55:11;;;;;;;11.93;3.33;;;;;;;7.22;100.00;100170.84;7386084;19;20384;-51
2022/09/26 00:57:46;;;;;;;6.00;2.40;;;;;;;7.25;100.00;100173.56;7391510;19;20406;-51
2022/09/26 01:00:16;;;;;;;6.10;2.90;;;;;;;7.26;100.00;100164.16;7384634;19;20431;-56
2022/09/26 01:02:49;;;;;;;8.60;2.50;;;;;;;7.32;100.00;100161.88;7392136;19;20399;-54
2022/09/26 01:05:20;;;;;;;10.33;3.40;;;;;;;7.32;100.00;100164.44;7386049;19;21072;-54
2022/09/26 01:07:51;;;;;;;10.03;3.50;;;;;;;7.29;100.00;100154.91;7395303;19;20755;-52
2022/09/26 01:10:20;;;;;;;9.67;3.70;;;;;;;7.25;100.00;100153.03;7390933;19;21344;-54
2022/09/26 01:12:50;;;;;;;13.70;4.07;;;;;;;7.26;100.00;100149.66;7399536;19;20407;-57
2022/09/26 01:15:20;;;;;;;7.40;3.43;;;;;;;7.24;100.00;100143.56;7391532;19;20395;-56
2022/09/26 01:17:52;;;;;;;8.47;3.20;;;;;;;7.22;100.00;100144.34;7402478;19;20421;-58
2022/09/26 01:20:29;;;;;;;6.47;3.47;;;;;;;7.21;100.00;100139.97;7390977;19;20527;-52
2022/09/26 01:23:46;;;;;;;11.33;3.30;;;;;;;7.21;100.00;100138.31;7398978;19;20917;-56
2022/09/26 01:26:49;;;;;;;12.40;4.73;;;;;;;7.21;100.00;100129.72;7391610;19;20407;-55
2022/09/26 01:29:37;;;;;;;9.33;3.67;;;;;;;7.23;100.00;100130.69;7396435;19;20415;-51
2022/09/26 01:35:02;;;;;;;11.03;3.20;;;;;;;7.23;100.00;100123.00;7396847;19;20411;-51
2022/09/26 01:37:36;;;;;;;8.50;3.60;;;;;;;7.23;100.00;100118.72;7397679;19;20384;-58
2022/09/26 01:40:10;;;;;;;6.93;3.40;;;;;;;7.25;100.00;100116.22;7391425;19;20437;-52
2022/09/26 01:42:48;;;;;;;12.13;3.00;;;;;;;7.24;100.00;100114.47;7387583;19;20505;-54
2022/09/26 01:45:20;;;;;;;9.10;2.97;;;;;;;7.26;100.00;100112.84;7389098;19;20405;-57
2022/09/26 01:47:56;;;;;;;8.40;3.60;;;;;;;7.26;100.00;100112.84;7395725;19;20379;-53
2022/09/26 01:50:31;;;;;;;7.37;3.20;;;;;;;7.26;100.00;100098.34;7391605;19;20411;-54
2022/09/26 01:53:04;;;;;;;12.43;3.53;;;;;;;7.29;100.00;100098.47;7401748;19;20694;-52
2022/09/26 01:55:38;;;;;;;7.20;3.07;;;;;;;7.33;100.00;100102.03;7391425;19;20430;-53
2022/09/26 01:58:11;;;;;;;6.67;2.80;;;;;;;7.36;100.00;100101.31;7396938;19;20977;-52
2022/09/26 02:00:43;;;;;;;7.33;3.33;;;;;;;7.36;100.00;100097.06;7390628;19;20422;-52
2022/09/26 02:03:18;;;;;;;8.33;3.50;;;;;;;7.37;100.00;100096.25;7397141;19;20405;-56
2022/09/26 02:05:50;;;;;;;4.17;2.70;;;;;;;7.40;100.00;100103.22;7391340;19;20440;-54
2022/09/26 02:08:23;;;;;;;6.83;3.23;;;;;;;7.42;100.00;100104.13;7394597;19;20470;-58
2022/09/26 02:10:54;;;;;;;9.97;3.10;;;;;;;7.43;100.00;100096.53;7391538;19;20447;-56
2022/09/26 02:13:26;;;;;;;6.43;2.80;;;;;;;7.43;100.00;100096.53;7396023;19;20905;-59
2022/09/26 02:15:59;;;;;;;6.27;2.87;;;;;;;7.48;100.00;100085.59;7389201;19;20419;-52
2022/09/26 02:18:34;;;;;;;6.37;2.90;;;;;;;7.49;100.00;100077.06;7394025;19;20756;-52
2022/09/26 02:21:06;;;;;;;6.80;2.87;;;;;;;7.51;100.00;100072.88;7390140;19;20423;-54
2022/09/26 02:23:35;;;;;;;6.83;3.03;;;;;;;7.51;100.00;100062.59;7396492;19;20383;-55
2022/09/26 02:26:05;;;;;;;15.57;4.13;;;;;;;7.57;100.00;100062.88;7390146;19;20415;-57
2022/09/26 02:28:34;;;;;;;13.27;4.80;;;;;;;7.57;100.00;100045.78;7393691;19;20453;-55
2022/09/26 02:31:07;;;;;;;13.47;3.57;;;;;;;7.61;100.00;100040.75;7398750;19;20406;-51
2022/09/26 02:33:39;;;;;;;9.17;4.47;;;;;;;7.63;100.00;100042.59;7389042;19;20442;-54
2022/09/26 02:36:10;;;;;;;10.07;3.63;;;;;;;7.65;100.00;100035.81;7396427;19;20410;-53
2022/09/26 02:38:39;;;;;;;10.60;4.20;;;;;;;7.65;100.00;100022.97;7389041;19;20415;-50
2022/09/26 02:41:15;;;;;;;9.67;4.50;;;;;;;7.67;100.00;100020.47;7399425;19;20417;-51
2022/09/26 02:43:50;;;;;;;7.63;3.60;;;;;;;7.69;100.00;100016.28;7390272;19;20414;-53
2022/09/26 02:46:43;;;;;;;10.50;3.90;;;;;;;7.74;100.00;100014.78;7396686;19;20507;-51
2022/09/26 02:49:27;;;;;;;7.90;3.73;;;;;;;7.70;100.00;100013.78;7386808;19;20986;-55
2022/09/26 02:52:19;;;;;;;5.23;3.50;;;;;;;7.69;100.00;100006.91;7395471;19;20406;-55
2022/09/26 02:54:56;;;;;;;9.53;3.70;;;;;;;7.70;100.00;100000.09;7389243;19;20426;-54
2022/09/26 02:57:33;;;;;;;7.63;3.43;;;;;;;7.70;100.00;99997.50;7395205;19;20391;-50
2022/09/26 03:00:06;;;;;;;8.83;3.70;;;;;;;7.75;100.00;99990.00;7386304;19;20422;-52
2022/09/26 03:02:41;;;;;;;7.13;3.03;;;;;;;7.74;100.00;99983.09;7395493;19;20380;-55
2022/09/26 03:05:15;;;;;;;5.60;3.40;;;;;;;7.76;100.00;99968.63;7388807;19;20414;-50
2022/09/26 03:07:48;;;;;;;6.40;2.87;;;;;;;7.79;100.00;99971.34;7393742;19;20398;-53
2022/09/26 03:10:18;;;;;;;6.20;3.60;;;;;;;7.79;100.00;99966.19;7392614;19;20769;-56
2022/09/26 03:12:48;;;;;;;10.67;3.63;;;;;;;7.82;100.00;99963.75;7398255;19;20418;-49
2022/09/26 03:15:18;;;;;;;6.90;3.47;;;;;;;7.84;100.00;99954.41;7394110;19;20782;-50
2022/09/26 03:17:52;;;;;;;9.90;3.10;;;;;;;7.85;100.00;99956.16;7394337;19;20744;-57
2022/09/26 03:20:25;;;;;;;6.67;3.23;;;;;;;7.90;100.00;99958.91;7391960;19;20435;-52
2022/09/26 03:22:54;;;;;;;4.17;2.53;;;;;;;7.91;100.00;99951.28;7388927;19;20375;-51
2022/09/26 03:25:26;;;;;;;5.07;2.90;;;;;;;7.96;100.00;99948.88;7394294;19;20415;-57
2022/09/26 03:27:57;;;;;;;5.53;2.90;;;;;;;7.92;100.00;99941.88;7373216;19;20419;-55
2022/09/26 03:30:26;;;;;;;10.83;3.07;;;;;;;7.94;100.00;99940.22;7393934;19;20388;-51
2022/09/26 03:32:56;;;;;;;6.10;2.80;;;;;;;7.99;100.00;99925.00;7388377;19;20380;-53
2022/09/26 03:35:29;;;;;;;4.47;2.77;;;;;;;8.02;100.00;99925.13;7394152;19;20770;-53
2022/09/26 03:37:58;;;;;;;5.20;2.60;;;;;;;8.03;100.00;99914.91;7386986;19;20407;-58
2022/09/26 03:40:27;;;;;;;7.60;2.80;;;;;;;8.01;100.00;99915.66;7395759;19;20423;-54
2022/09/26 03:42:57;;;;;;;4.33;2.70;;;;;;;8.10;100.00;99908.28;7388873;19;20408;-55
2022/09/26 03:45:27;;;;;;;7.80;3.00;;;;;;;8.15;100.00;99904.22;7393087;19;20398;-53
2022/09/26 03:47:57;;;;;;;7.40;3.40;;;;;;;8.20;100.00;99899.28;7386465;19;20411;-56
2022/09/26 03:50:29;;;;;;;6.80;2.80;;;;;;;8.20;100.00;99902.69;7392264;19;20368;-58
2022/09/26 03:52:59;;;;;;;4.63;3.20;;;;;;;8.20;100.00;99897.56;7386540;19;20394;-51
2022/09/26 03:55:28;;;;;;;8.40;3.27;;;;;;;8.24;100.00;99893.41;7396149;19;20410;-56
2022/09/26 03:57:58;;;;;;;9.03;2.87;;;;;;;8.24;100.00;99888.25;7387073;19;20921;-56
2022/09/26 04:00:27;;;;;;;10.27;2.63;;;;;;;8.28;100.00;99885.00;7392034;19;20392;-51
2022/09/26 04:02:56;;;;;;;4.50;2.67;;;;;;;8.30;100.00;99882.50;7389386;19;20421;-56
2022/09/26 04:05:26;;;;;;;9.83;2.80;;;;;;;8.27;100.00;99877.22;7392112;19;20392;-57
2022/09/26 04:08:01;;;;;;;10.10;2.70;;;;;;;8.24;100.00;99873.72;7385332;19;20388;-55
2022/09/26 04:10:32;;;;;;;21.27;9.10;;;;;;;8.24;100.00;99863.47;7391867;19;20375;-53
2022/09/26 04:13:02;;;;;;;5.00;2.67;;;;;;;8.28;100.00;99864.44;7385878;19;20419;-53
2022/09/26 04:15:31;;;;;;;9.67;3.30;;;;;;;8.28;100.00;99861.88;7391685;19;20406;-49
2022/09/26 04:18:00;;;;;;;8.83;3.17;;;;;;;8.31;100.00;99861.13;7385307;19;20406;-51
2022/09/26 04:20:30;;;;;;;4.63;3.07;;;;;;;8.30;100.00;99857.66;7391816;19;20918;-56
2022/09/26 04:23:02;;;;;;;6.63;2.87;;;;;;;8.30;100.00;99854.22;7386885;19;20914;-53
2022/09/26 04:25:31;;;;;;;9.83;3.80;;;;;;;8.33;100.00;99852.63;7391423;19;20391;-54
2022/09/26 04:28:01;;;;;;;6.63;3.20;;;;;;;8.32;100.00;99855.16;7381213;19;20409;-51
2022/09/26 04:30:30;;;;;;;7.77;2.50;;;;;;;8.34;100.00;99843.22;7391302;19;20395;-52
2022/09/26 04:33:00;;;;;;;5.07;3.20;;;;;;;8.36;100.00;99845.03;7386520;19;20384;-56
2022/09/26 04:35:29;;;;;;;5.30;2.90;;;;;;;8.34;100.00;99831.25;7391056;19;20387;-54
2022/09/26 04:38:01;;;;;;;9.20;3.07;;;;;;;8.35;100.00;99824.41;7382113;19;20410;-52
2022/09/26 04:40:31;;;;;;;5.93;3.37;;;;;;;8.35;100.00;99817.56;7393237;19;20395;-58
2022/09/26 04:43:00;;;;;;;5.20;3.07;;;;;;;8.35;100.00;99814.13;7388830;19;20910;-54
2022/09/26 04:45:30;;;;;;;6.37;3.00;;;;;;;8.39;100.00;99813.41;7398677;19;20392;-57
2022/09/26 04:47:59;;;;;;;6.30;2.90;;;;;;;8.42;100.00;99799.81;7387528;19;21323;-55
2022/09/26 04:50:29;;;;;;;5.10;2.87;;;;;;;8.38;100.00;99803.97;7398307;19;21103;-53
2022/09/26 04:52:58;;;;;;;10.13;3.33;;;;;;;8.38;100.00;99806.53;7388195;19;20388;-54
2022/09/26 04:55:30;;;;;;;5.77;3.03;;;;;;;8.41;100.00;99801.47;7398410;19;20996;-53
2022/09/26 04:58:00;;;;;;;10.57;3.37;;;;;;;8.37;100.00;99795.38;7397872;19;20423;-56
2022/09/26 05:00:30;;;;;;;5.40;2.57;;;;;;;8.36;100.00;99795.34;7398365;19;20406;-53
2022/09/26 05:02:59;;;;;;;6.23;3.20;;;;;;;8.34;100.00;99797.84;7398497;19;20710;-54
2022/09/26 05:05:31;;;;;;;5.70;3.03;;;;;;;8.33;100.00;99793.53;7398470;19;20388;-51
2022/09/26 05:08:01;;;;;;;4.70;3.10;;;;;;;8.34;100.00;99791.81;7396598;19;20426;-55
2022/09/26 05:10:33;;;;;;;5.20;3.00;;;;;;;8.33;100.00;99779.78;7395277;19;20399;-57
2022/09/26 05:13:03;;;;;;;5.70;2.83;;;;;;;8.34;100.00;99781.53;7397647;19;20820;-57
2022/09/26 05:15:37;;;;;;;7.10;3.60;;;;;;;8.31;100.00;99778.88;7395907;19;20414;-58
2022/09/26 05:18:10;;;;;;;6.67;2.93;;;;;;;8.28;100.00;99774.50;7394549;19;20415;-51
2022/09/26 05:20:42;;;;;;;6.53;3.43;;;;;;;8.30;100.00;99769.41;7389702;19;20392;-51
2022/09/26 05:23:12;;;;;;;7.93;3.70;;;;;;;8.31;100.00;99766.00;7397522;19;20383;-56
2022/09/26 05:28:26;;;;;;;5.00;2.70;;;;;;;8.31;100.00;99758.31;7396049;19;20388;-54
2022/09/26 05:30:56;;;;;;;5.60;2.90;;;;;;;8.32;100.00;99760.06;7384069;19;20415;-58
2022/09/26 05:33:25;;;;;;;5.77;3.27;;;;;;;8.33;100.00;99760.13;7398450;19;20407;-53
2022/09/26 05:35:55;;;;;;;12.43;5.00;;;;;;;8.33;100.00;99751.50;7387112;19;20411;-50
2022/09/26 05:38:24;;;;;;;4.30;3.10;;;;;;;8.33;100.00;99743.81;7396088;19;20445;-48
2022/09/26 05:40:55;;;;;;;6.53;3.73;;;;;;;8.34;100.00;99756.72;7387030;19;20403;-55
2022/09/26 05:43:26;;;;;;;6.50;3.10;;;;;;;8.34;100.00;99746.44;7397027;19;20380;-55
2022/09/26 05:45:58;;;;;;;12.03;3.63;;;;;;;8.37;100.00;99745.66;7383556;19;20790;-55
2022/09/26 05:48:28;;;;;;;5.90;3.33;;;;;;;8.41;100.00;99737.22;7399867;19;20427;-55
2022/09/26 05:50:58;;;;;;;8.10;3.30;;;;;;;8.40;100.00;99740.63;7383943;19;20403;-53
2022/09/26 05:53:28;;;;;;;7.50;4.03;;;;;;;8.41;100.00;99739.78;7393878;19;20423;-54
2022/09/26 05:56:00;;;;;;;6.73;2.53;;;;;;;8.39;100.00;99726.03;7388200;19;20433;-56
2022/09/26 05:58:31;;;;;;;5.20;2.87;;;;;;;8.44;100.00;99737.34;7395062;19;20563;-56
2022/09/26 06:01:05;;;;;;;5.47;3.00;;;;;;;8.45;100.00;99733.94;7380927;19;20985;-55
2022/09/26 06:03:36;;;;;;;5.67;3.33;;;;;;;8.47;100.00;99737.44;7396675;19;20932;-55
2022/09/26 06:06:06;;;;;;;5.47;3.50;;;;;;;8.48;100.00;99734.06;7384473;19;20773;-56
2022/09/26 06:08:37;;;;;;;4.73;2.70;;;;;;;8.55;100.00;99734.31;7395094;19;20434;-58
2022/09/26 06:11:11;;;;;;;4.87;2.80;;;;;;;8.58;100.00;99736.97;7373287;19;20407;-57
2022/09/26 06:13:42;;;;;;;8.13;3.00;;;;;;;8.60;100.00;99727.59;7396305;19;20416;-51
2022/09/26 06:16:12;;;;;;;4.73;2.40;;;;;;;8.63;100.00;99720.00;7391783;19;20428;-56
2022/09/26 06:18:42;;;;;;;6.47;2.97;;;;;;;8.67;100.00;99721.81;7398791;19;20777;-58
2022/09/26 06:21:13;;;;;;;7.30;2.90;;;;;;;8.70;100.00;99713.34;7394807;19;20423;-58
2022/09/26 06:23:43;;;;;;;7.37;2.93;;;;;;;8.73;100.00;99711.75;7400916;19;20413;-54
2022/09/26 06:26:20;;;;;;;5.63;3.60;;;;;;;8.78;100.00;99711.91;7389484;19;20395;-55
2022/09/26 06:28:51;;;;;;;6.17;3.30;;;;;;;8.80;100.00;99711.94;7395484;19;20446;-48
2022/09/26 06:31:21;;;;;;;8.60;3.90;;;;;;;8.85;100.00;99707.81;7388660;19;20415;-54
2022/09/26 06:33:53;;;;;;;8.30;3.83;;;;;;;8.88;100.00;99702.78;7396655;19;20388;-54
2022/09/26 06:36:24;;;;;;;3.77;2.80;;;;;;;8.93;100.00;99703.81;7390688;19;20511;-59
2022/09/26 06:38:54;;;;;;;7.47;2.87;;;;;;;8.95;100.00;99699.56;7394950;19;20458;-52
2022/09/26 06:41:27;;;;;;;6.80;3.40;;;;;;;8.96;100.00;99701.31;7389811;19;20400;-52
2022/09/26 06:43:56;;;;;;;8.83;3.13;;;;;;;8.97;100.00;99695.34;7396295;19;20387;-56
2022/09/26 06:46:26;;;;;;;7.93;3.33;;;;;;;8.99;100.00;99686.00;7389587;19;20407;-50
2022/09/26 06:48:55;;;;;;;4.03;2.70;;;;;;;9.02;100.00;99696.38;7394498;19;20499;-56
2022/09/26 06:51:25;;;;;;;5.80;2.50;;;;;;;9.05;100.00;99686.19;7388075;19;20414;-54
2022/09/26 06:53:54;;;;;;;4.60;2.77;;;;;;;9.10;100.00;99685.44;7395741;19;20749;-54
2022/09/26 06:56:26;;;;;;;9.20;2.90;;;;;;;9.11;100.00;99680.34;7387727;19;20423;-54
2022/09/26 06:58:56;;;;;;;5.53;3.40;;;;;;;9.18;100.00;99678.84;7394230;19;20438;-56
2022/09/26 07:01:25;;;;;;;5.00;2.90;;;;;;;9.23;100.00;99672.09;7385919;19;20806;-56
2022/09/26 07:03:55;;;;;;;3.73;2.70;;;;;;;9.28;100.00;99680.84;7394831;19;20384;-56
2022/09/26 07:06:25;;;;;;;6.50;3.60;;;;;;;9.29;100.00;99680.00;7389224;19;20438;-57
2022/09/26 07:08:54;;;;;;;15.03;7.40;;;;;;;9.32;100.00;99679.22;7394307;19;20412;-54
2022/09/26 07:11:41;;;;;;;10.30;2.97;;;;;;;9.29;100.00;99674.00;7387802;19;20483;-55
2022/09/26 07:14:30;;;;;;;3.63;1.93;;;;;;;9.24;100.00;99663.59;7394794;19;20462;-57
2022/09/26 07:17:00;;;;;;;6.80;3.20;;;;;;;9.26;100.00;99663.59;7390272;19;20438;-55
2022/09/26 07:19:29;;;;;;;5.60;3.50;;;;;;;9.30;100.00;99671.50;7393126;19;20416;-53
2022/09/26 07:21:59;;;;;;;4.80;3.20;;;;;;;9.31;100.00;99662.94;7389621;19;20419;-56
2022/09/26 07:24:28;;;;;;;4.57;3.60;;;;;;;9.27;100.00;99667.91;7394472;19;20772;-54
2022/09/26 07:27:00;;;;;;;8.23;2.83;;;;;;;9.31;100.00;99657.78;7389879;19;20442;-52
2022/09/26 07:29:30;;;;;;;10.43;3.80;;;;;;;9.37;100.00;99657.06;7393031;19;20761;-54
2022/09/26 07:32:00;;;;;;;7.90;3.30;;;;;;;9.35;100.00;99657.84;7388962;19;20434;-56
2022/09/26 07:34:30;;;;;;;8.03;3.70;;;;;;;9.38;100.00;99652.81;7394176;19;20380;-49
2022/09/26 07:37:00;;;;;;;4.73;2.77;;;;;;;9.38;100.00;99647.66;7388530;19;20786;-60
2022/09/26 07:39:29;;;;;;;7.07;2.80;;;;;;;9.34;100.00;99641.56;7392430;19;20424;-53
2022/09/26 07:42:02;;;;;;;7.53;3.13;;;;;;;9.37;100.00;99644.22;7387738;19;20430;-56
2022/09/26 07:44:31;;;;;;;7.23;3.37;;;;;;;9.40;100.00;99640.84;7394001;19;20731;-52
2022/09/26 07:50:15;;;;;;;5.43;2.00;;;;;;;9.39;100.00;99636.53;7395291;19;20466;-52
2022/09/26 07:52:46;;;;;;;5.90;3.00;;;;;;;9.39;100.00;99632.25;7390991;19;20455;-51
2022/09/26 07:55:20;;;;;;;7.30;3.90;;;;;;;9.43;100.00;99631.50;7396602;19;20471;-51
2022/09/26 07:57:52;;;;;;;6.67;3.53;;;;;;;9.43;100.00;99625.47;7390812;19;20462;-56
2022/09/26 08:00:22;;;;;;;4.60;3.10;;;;;;;9.41;100.00;99632.28;7394620;19;20435;-52
2022/09/26 08:02:52;;;;;;;5.10;2.80;;;;;;;9.40;100.00;99625.41;7388127;19;20461;-56
2022/09/26 08:05:23;;;;;;;13.03;5.93;;;;;;;9.44;100.00;99629.81;7397314;19;20404;-54
2022/09/26 08:07:52;;;;;;;8.30;3.60;;;;;;;9.40;100.00;99627.97;7389997;19;20996;-55
2022/09/26 08:10:23;;;;;;;5.50;3.33;;;;;;;9.45;100.00;99626.41;7394833;19;20423;-52
2022/09/26 08:12:55;;;;;;;6.80;3.40;;;;;;;9.43;100.00;99622.91;7391896;19;20457;-52
2022/09/26 08:15:25;;;;;;;5.83;3.17;;;;;;;9.42;100.00;99624.63;7396238;19;20404;-53
2022/09/26 08:17:54;;;;;;;7.23;3.53;;;;;;;9.42;100.00;99623.72;7388746;19;20423;-55
2022/09/26 08:20:24;;;;;;;9.90;4.17;;;;;;;9.49;100.00;99607.63;7391033;19;20418;-53
2022/09/26 08:23:00;;;;;;;4.80;3.87;;;;;;;9.54;100.00;99608.63;7393408;19;20969;-52
2022/09/26 08:25:29;;;;;;;8.80;3.83;;;;;;;9.53;100.00;99601.75;7397750;19;20418;-54
2022/09/26 08:28:01;;;;;;;9.80;4.80;;;;;;;9.52;100.00;99610.31;7386769;19;20474;-53
2022/09/26 08:30:31;;;;;;;12.00;4.87;;;;;;;9.56;100.00;99607.00;7392071;19;20417;-54
2022/09/26 08:33:01;;;;;;;8.77;4.43;;;;;;;9.65;100.00;99602.91;7395093;19;20818;-52
2022/09/26 08:35:37;;;;;;;4.80;2.97;;;;;;;9.59;100.00;99601.91;7392710;19;20388;-58
2022/09/26 08:38:07;;;;;;;16.77;5.07;;;;;;;9.67;100.00;99603.81;7395064;19;20435;-55
2022/09/26 08:40:44;;;;;;;44.57;19.67;;;;;;;9.72;100.00;99600.53;7387127;19;20419;-57
2022/09/26 08:43:29;;;;;;;8.37;4.10;;;;;;;9.78;100.00;99604.97;7392214;19;20757;-58
2022/09/26 08:49:17;;;;;;;8.90;4.63;;;;;;;9.96;100.00;99596.00;7390808;19;20420;-58
2022/09/26 08:51:49;;;;;;;8.23;4.37;;;;;;;10.06;100.00;99590.22;7386146;19;20426;-55
2022/09/26 08:54:21;;;;;;;9.10;5.30;;;;;;;10.15;100.00;99587.00;7394375;19;20741;-57
2022/09/26 08:56:52;;;;;;;21.93;6.73;;;;;;;10.23;100.00;99597.50;7385656;19;20434;-55
2022/09/26 08:59:28;;;;;;;8.13;4.33;;;;;;;10.29;100.00;99594.22;7390297;19;20419;-53
2022/09/26 09:02:02;;;;;;;17.43;8.53;;;;;;;10.37;100.00;99585.81;7384638;19;20413;-59
2022/09/26 09:04:38;;;;;;;12.50;6.33;;;;;;;10.42;100.00;99585.06;7391614;19;20387;-53
2022/09/26 09:07:14;;;;;;;10.10;5.27;;;;;;;10.51;100.00;99591.34;7384634;19;20407;-51
2022/09/26 09:09:44;;;;;;;8.10;4.83;;;;;;;10.67;100.00;99597.72;7389594;19;20403;-54
2022/09/26 09:12:19;;;;;;;9.70;5.60;;;;;;;10.62;100.00;99598.47;7384813;19;20411;-51
2022/09/26 09:15:08;;;;;;;13.70;6.80;;;;;;;10.79;100.00;99597.16;7396154;19;20395;-56
2022/09/26 09:18:01;;;;;;;19.67;7.13;;;;;;;10.86;100.00;99602.44;7385371;19;20435;-55
2022/09/26 09:20:41;;;;;;;9.13;6.03;;;;;;;10.99;100.00;99598.41;7394460;19;20407;-50
2022/09/26 09:23:32;;;;;;;16.40;8.03;;;;;;;11.01;100.00;99601.88;7390712;19;20423;-55
2022/09/26 09:26:10;;;;;;;26.93;13.20;;;;;;;10.82;100.00;99606.63;7384930;19;20413;-56
2022/09/26 09:29:18;;;;;;;12.47;7.13;;;;;;;10.77;100.00;99603.09;7399090;19;20793;-60
2022/09/26 09:31:50;;;;;;;13.27;6.80;;;;;;;10.69;100.00;99599.47;7389883;19;20431;-51
2022/09/26 09:34:26;;;;;;;12.60;7.97;;;;;;;10.66;100.00;99595.97;7397576;19;20387;-55
2022/09/26 09:36:59;;;;;;;14.90;7.60;;;;;;;10.69;100.00;99600.34;7394066;19;20425;-53
2022/09/26 09:39:31;;;;;;;9.67;6.23;;;;;;;10.69;100.00;99590.03;7395748;19;20407;-55
2022/09/26 09:42:04;;;;;;;26.20;12.63;;;;;;;10.70;100.00;99593.47;7392371;19;20407;-58
2022/09/26 09:44:41;;;;;;;15.63;8.00;;;;;;;10.73;100.00;99578.06;7398775;19;20392;-55
2022/09/26 09:47:19;;;;;;;10.03;6.80;;;;;;;10.87;100.00;99578.38;7392000;19;20486;-53
2022/09/26 09:49:49;;;;;;;24.80;11.77;;;;;;;10.87;100.00;99574.06;7395323;19;20408;-53
2022/09/26 09:52:28;;;;;;;10.60;5.97;;;;;;;10.87;100.00;99579.22;7389533;19;20415;-55
2022/09/26 09:55:07;;;;;;;29.37;12.60;;;;;;;11.01;100.00;99581.22;7397803;19;20380;-54
2022/09/26 09:57:48;;;;;;;15.33;6.30;;;;;;;10.97;100.00;99584.59;7390736;19;20441;-57
2022/09/26 10:00:19;;;;;;;10.63;3.67;;;;;;;10.99;100.00;99578.66;7394950;19;20411;-58
2022/09/26 10:02:58;;;;;;;6.87;4.83;;;;;;;11.03;100.00;99610.56;7389318;19;20419;-54
2022/09/26 10:05:39;;;;;;;12.90;5.60;;;;;;;11.05;100.00;99599.41;7397456;19;20391;-60
2022/09/26 10:08:12;;;;;;;16.17;6.03;;;;;;;11.11;100.00;99609.00;7396122;19;21393;-54
2022/09/26 10:10:44;;;;;;;8.37;3.50;;;;;;;11.19;100.00;99614.31;7396055;19;20404;-53
2022/09/26 10:13:14;;;;;;;8.07;3.20;;;;;;;11.16;100.00;99625.47;7394458;19;20395;-55
2022/09/26 10:15:46;;;;;;;12.00;5.10;;;;;;;11.18;100.00;99625.50;7390253;19;20411;-58
2022/09/26 10:18:21;;;;;;;9.93;3.20;;;;;;;11.10;100.00;99627.91;7399200;19;20391;-56
2022/09/26 10:20:56;;;;;;;10.43;5.50;;;;;;;11.16;100.00;99637.47;7393557;19;20395;-52
2022/09/26 10:23:31;;;;;;;9.10;3.03;;;;;;;11.15;100.00;99641.78;7397818;19;20396;-56
2022/09/26 10:26:03;;;;;;;5.90;3.27;;;;;;;11.18;100.00;99636.69;7388496;19;21078;-53
2022/09/26 10:28:36;;;;;;;16.43;7.63;;;;;;;11.27;100.00;99630.84;7397541;19;20408;-56
2022/09/26 10:31:09;;;;;;;9.87;4.00;;;;;;;11.21;100.00;99636.75;7387334;19;20944;-53
2022/09/26 10:33:45;;;;;;;5.67;3.30;;;;;;;11.27;100.00;99635.16;7400407;19;20387;-56
2022/09/26 10:36:22;;;;;;;6.30;2.90;;;;;;;11.34;100.00;99637.00;7394555;19;20450;-55
2022/09/26 10:41:41;;;;;;;9.57;3.17;;;;;;;11.36;100.00;99635.31;7390270;19;20411;-55
2022/09/26 10:44:24;;;;;;;6.83;3.03;;;;;;;11.36;100.00;99632.75;7397039;19;20411;-53
2022/09/26 10:46:55;;;;;;;7.50;4.13;;;;;;;11.38;100.00;99625.88;7394303;19;20446;-52
2022/09/26 10:49:32;;;;;;;10.40;5.60;;;;;;;11.33;100.00;99630.09;7393817;19;20479;-58
2022/09/26 10:52:10;;;;;;;5.40;3.53;;;;;;;11.25;100.00;99616.16;7392386;19;20454;-55
2022/09/26 10:54:56;;;;;;;10.23;5.10;;;;;;;11.30;100.00;99622.28;7398758;19;20430;-53
2022/09/26 10:57:29;;;;;;;5.27;2.40;;;;;;;11.32;100.00;99615.44;7393303;19;20443;-57
2022/09/26 11:00:05;;;;;;;12.53;5.60;;;;;;;11.30;100.00;99611.97;7396086;19;20443;-58
2022/09/26 11:02:34;;;;;;;7.67;3.40;;;;;;;11.25;100.00;99608.41;7391732;19;20447;-56
2022/09/26 11:07:51;;;;;;;6.63;3.53;;;;;;;11.30;100.00;99601.63;7388350;19;20419;-56
2022/09/26 11:10:25;;;;;;;6.87;3.33;;;;;;;11.39;100.00;99585.44;7393270;19;20438;-54
2022/09/26 11:13:01;;;;;;;9.37;3.40;;;;;;;11.48;100.00;99571.00;7388143;19;20430;-56
2022/09/26 11:15:31;;;;;;;9.20;3.03;;;;;;;11.48;100.00;99578.75;7395134;19;20455;-58
2022/09/26 11:18:00;;;;;;;4.43;2.80;;;;;;;11.53;100.00;99565.06;7394119;19;20475;-58
2022/09/26 11:20:51;;;;;;;4.60;3.07;;;;;;;11.55;100.00;99564.25;7394100;19;20766;-56
2022/09/26 11:23:28;;;;;;;9.70;3.83;;;;;;;11.48;100.00;99573.59;7393773;19;20423;-58
2022/09/26 11:26:08;;;;;;;4.77;2.23;;;;;;;11.39;100.00;99575.97;7390632;19;20923;-59
2022/09/26 11:28:43;;;;;;;3.53;2.83;;;;;;;11.36;100.00;99581.09;7395178;19;20811;-55
2022/09/26 11:31:21;;;;;;;5.57;2.17;;;;;;;11.30;100.00;99583.56;7388389;19;20420;-61
2022/09/26 11:33:51;;;;;;;6.73;2.50;;;;;;;11.28;100.00;99593.00;7392948;19;20483;-58
2022/09/26 11:36:46;;;;;;;4.33;2.77;;;;;;;11.25;100.00;99588.63;7390030;19;20468;-55
2022/09/26 11:39:30;;;;;;;4.37;3.13;;;;;;;11.16;100.00;99586.72;7396797;19;20455;-53
2022/09/26 11:42:05;;;;;;;8.50;3.00;;;;;;;11.02;100.00;99577.84;7388932;19;20751;-56
2022/09/26 11:44:46;;;;;;;7.27;2.97;;;;;;;10.90;100.00;99566.41;7393858;19;20415;-59
2022/09/26 11:47:35;;;;;;;6.13;3.30;;;;;;;10.78;100.00;99571.31;7390730;19;20977;-55
2022/09/26 11:50:22;;;;;;;4.03;3.13;;;;;;;10.73;100.00;99540.25;7396174;19;20432;-51
2022/09/26 11:53:03;;;;;;;5.33;3.63;;;;;;;10.65;100.00;99522.03;7386815;19;20419;-55
2022/09/26 11:55:39;;;;;;;4.23;3.37;;;;;;;10.61;100.00;99507.31;7393577;19;20379;-60
2022/09/26 11:58:18;;;;;;;6.57;3.90;;;;;;;10.53;100.00;99494.22;7393232;19;20403;-54
2022/09/26 12:00:57;;;;;;;8.00;3.90;;;;;;;10.47;100.00;99475.19;7386014;19;20399;-53
2022/09/26 12:03:54;;;;;;;4.50;3.30;;;;;;;10.37;100.00;99468.94;7393565;19;20387;-55
2022/09/26 12:06:33;;;;;;;5.27;3.50;;;;;;;10.30;100.00;99454.19;7387649;19;20416;-61
2022/09/26 12:09:17;;;;;;;8.27;5.00;;;;;;;10.27;100.00;99432.63;7395298;19;20503;-53
2022/09/26 12:11:55;;;;;;;8.57;5.87;;;;;;;10.28;100.00;99428.34;7387570;19;20502;-54
2022/09/26 12:14:37;;;;;;;9.30;5.53;;;;;;;10.27;100.00;99424.03;7389305;19;20404;-58